EIKY/KIR METAR and TAF weather

Enter ICAO airport designator
Station Type Date Time Source
EIKY METAR 2023/01/30 11:00 UTC NOAA

EIKY 301100Z 21005KT 9999 FEW033 08/04 Q1030


Station Type Date Time Source
EIKY Decoded METAR 2023/01/30 11:00 UTC NOAA

Station name not available
Jan 30, 2023 - 06:00 AM EST / 2023.01.30 1100 UTC
Wind: from the SSW (210 degrees) at 6 MPH (5 KT):0
Visibility: greater than 7 mile(s):0
Sky conditions: mostly clear
Temperature: 46 F (8 C)
Dew Point: 39 F (4 C)
Relative Humidity: 75%
Pressure (altimeter): 30.42 in. Hg (1030 hPa)
ob: EIKY 301100Z 21005KT 9999 FEW033 08/04 Q1030
cycle: 11

Station Type Date Time Source
EIKY TAF UTC NOAA

Error!

Example: see airport list